JA329E RJFK-RJFK

Flight info

Callsign JA329E
Flight time 0h 14m
Altitude 2000
Route TGL
Aircraft C172/L-SFG/C

Departure

Time 2026-04-29 08:55
Airport Kagoshima Airport (RJFK)

Arrival

Time 2026-04-29 09:09
Airport Kagoshima Airport (RJFK)
Time Latitude Longitude Altitude Speed Heading
2026-04-29 08:39 31.79227 130.72368 868 ft 0 kts 296°
2026-04-29 08:48 31.79228 130.72368 868 ft 0 kts 302°
2026-04-29 08:49 31.79237 130.72361 866 ft 3 kts 341°
2026-04-29 08:49 31.79263 130.72349 866 ft 2 kts 335°
2026-04-29 08:49 31.79264 130.72349 866 ft 0 kts 335°
2026-04-29 08:50 31.79270 130.72345 865 ft 4 kts 339°
2026-04-29 08:51 31.79306 130.72373 866 ft 7 kts 50°
2026-04-29 08:51 31.79337 130.72393 866 ft 5 kts 337°
2026-04-29 08:51 31.79364 130.72375 866 ft 5 kts 330°
2026-04-29 08:51 31.79402 130.72349 867 ft 8 kts 330°
2026-04-29 08:52 31.79455 130.72327 867 ft 7 kts
2026-04-29 08:52 31.79492 130.72354 867 ft 6 kts 55°
2026-04-29 08:52 31.79508 130.72386 867 ft 2 kts 60°
2026-04-29 08:52 31.79510 130.72390 867 ft 0 kts 60°
2026-04-29 08:53 31.79516 130.72403 867 ft 8 kts 61°
2026-04-29 08:53 31.79557 130.72448 868 ft 7 kts 13°
2026-04-29 08:53 31.79601 130.72439 869 ft 10 kts 329°
2026-04-29 08:54 31.79805 130.72301 871 ft 56 kts 329°
2026-04-29 08:54 31.80250 130.72006 925 ft 83 kts 332°
2026-04-29 08:54 31.80763 130.71674 1140 ft 82 kts 327°
2026-04-29 08:54 31.81238 130.71317 1363 ft 79 kts 327°
2026-04-29 08:55 31.81704 130.70970 1572 ft 79 kts 326°
2026-04-29 08:55 31.82161 130.70588 1738 ft 84 kts 310°
2026-04-29 08:55 31.82297 130.69897 1811 ft 93 kts 259°
2026-04-29 08:55 31.81955 130.69221 1822 ft 99 kts 240°
2026-04-29 08:56 31.81593 130.68522 1806 ft 100 kts 243°
2026-04-29 08:56 31.81214 130.67841 1808 ft 102 kts 239°
2026-04-29 08:56 31.80568 130.67506 1818 ft 111 kts 181°
2026-04-29 08:56 31.79844 130.67866 1787 ft 115 kts 151°
2026-04-29 08:57 31.79176 130.68356 1802 ft 112 kts 150°
2026-04-29 08:57 31.78501 130.68833 1806 ft 113 kts 150°
2026-04-29 08:57 31.77835 130.69304 1810 ft 111 kts 150°
2026-04-29 08:57 31.77182 130.69775 1806 ft 109 kts 151°
2026-04-29 08:58 31.76553 130.70232 1794 ft 104 kts 151°
2026-04-29 08:58 31.75952 130.70668 1781 ft 94 kts 152°
2026-04-29 08:58 31.75459 130.71045 1761 ft 81 kts 142°
2026-04-29 08:58 31.75286 130.71642 1712 ft 80 kts 75°
2026-04-29 08:59 31.75526 130.72227 1654 ft 81 kts 57°
2026-04-29 08:59 31.75842 130.72806 1576 ft 87 kts 54°
2026-04-29 08:59 31.76153 130.73420 1517 ft 89 kts 57°
2026-04-29 08:59 31.76531 130.73990 1430 ft 88 kts 30°
2026-04-29 09:00 31.77101 130.74106 1365 ft 83 kts 345°
2026-04-29 09:00 31.77605 130.73783 1265 ft 83 kts 327°
2026-04-29 09:00 31.78106 130.73446 1157 ft 82 kts 328°
2026-04-29 09:00 31.78591 130.73118 1036 ft 79 kts 329°
2026-04-29 09:01 31.79058 130.72807 940 ft 73 kts 329°
2026-04-29 09:01 31.79451 130.72540 867 ft 58 kts 326°
2026-04-29 09:01 31.79750 130.72337 867 ft 53 kts 331°
2026-04-29 09:01 31.80168 130.72052 920 ft 80 kts 326°
2026-04-29 09:02 31.80661 130.71698 1100 ft 84 kts 329°
2026-04-29 09:02 31.81169 130.71355 1320 ft 83 kts 328°
2026-04-29 09:02 31.81685 130.71009 1487 ft 87 kts 328°
2026-04-29 09:02 31.82145 130.70571 1679 ft 88 kts 301°
2026-04-29 09:03 31.82151 130.69855 1826 ft 95 kts 248°
2026-04-29 09:03 31.81808 130.69174 1833 ft 99 kts 244°
2026-04-29 09:03 31.81455 130.68466 1788 ft 102 kts 244°
2026-04-29 09:03 31.81070 130.67791 1788 ft 101 kts 227°
2026-04-29 09:04 31.80383 130.67644 1805 ft 109 kts 160°
2026-04-29 09:04 31.79727 130.68076 1810 ft 104 kts 150°
2026-04-29 09:04 31.79114 130.68513 1808 ft 104 kts 150°
2026-04-29 09:04 31.78482 130.68965 1804 ft 105 kts 150°
2026-04-29 09:05 31.77872 130.69401 1811 ft 103 kts 150°
2026-04-29 09:05 31.77260 130.69842 1803 ft 102 kts 150°
2026-04-29 09:05 31.76669 130.70273 1804 ft 98 kts 151°
2026-04-29 09:05 31.76096 130.70689 1790 ft 93 kts 150°
2026-04-29 09:06 31.75568 130.71083 1786 ft 89 kts 151°
2026-04-29 09:06 31.75247 130.71670 1750 ft 87 kts 89°
2026-04-29 09:06 31.75474 130.72306 1704 ft 86 kts 58°
2026-04-29 09:06 31.75790 130.72911 1638 ft 87 kts 57°
2026-04-29 09:07 31.76119 130.73523 1544 ft 91 kts 56°
2026-04-29 09:07 31.76478 130.74134 1428 ft 90 kts 45°
2026-04-29 09:07 31.77009 130.74325 1413 ft 79 kts 334°
2026-04-29 09:07 31.77455 130.73920 1273 ft 85 kts 320°
2026-04-29 09:08 31.77972 130.73537 1153 ft 90 kts 327°
2026-04-29 09:08 31.78487 130.73190 1061 ft 80 kts 328°
2026-04-29 09:08 31.78959 130.72873 976 ft 75 kts 328°
2026-04-29 09:08 31.79388 130.72583 876 ft 64 kts 327°
2026-04-29 09:09 31.79704 130.72368 866 ft 43 kts 331°
2026-04-29 09:09 31.80044 130.72140 873 ft 74 kts 330°
2026-04-29 09:09 31.80526 130.71810 1050 ft 83 kts 328°
2026-04-29 09:09 31.81030 130.71464 1276 ft 83 kts 329°
2026-04-29 09:10 31.81537 130.71126 1423 ft 85 kts 329°
2026-04-29 09:10 31.82005 130.70754 1475 ft 79 kts 306°
2026-04-29 09:10 31.82038 130.70133 1473 ft 87 kts 246°
2026-04-29 09:10 31.81555 130.69696 1523 ft 94 kts 194°
2026-04-29 09:11 31.80905 130.69840 1537 ft 101 kts 150°
2026-04-29 09:11 31.80326 130.70247 1629 ft 88 kts 151°
2026-04-29 09:11 31.79802 130.70618 1585 ft 89 kts 150°
2026-04-29 09:11 31.79253 130.70998 1479 ft 92 kts 151°
2026-04-29 09:12 31.78718 130.71363 1461 ft 86 kts 150°
2026-04-29 09:12 31.78233 130.71731 1409 ft 81 kts 148°
2026-04-29 09:12 31.77921 130.72227 1301 ft 76 kts 97°
2026-04-29 09:12 31.78085 130.72774 1203 ft 72 kts 42°
2026-04-29 09:13 31.78544 130.72991 1117 ft 73 kts 357°
2026-04-29 09:13 31.78991 130.72860 988 ft 61 kts 328°
2026-04-29 09:13 31.79366 130.72598 907 ft 63 kts 329°
2026-04-29 09:13 31.79698 130.72373 888 ft 42 kts 330°
2026-04-29 09:14 31.79907 130.72232 891 ft 27 kts 330°
2026-04-29 09:14 31.80020 130.72145 893 ft 11 kts 297°
2026-04-29 09:14 31.80023 130.72089 894 ft 5 kts 246°
2026-04-29 09:14 31.80005 130.72053 894 ft 7 kts 239°
2026-04-29 09:15 31.79963 130.71997 892 ft 10 kts 202°
2026-04-29 09:15 31.79896 130.72015 890 ft 11 kts 150°
2026-04-29 09:15 31.79823 130.72064 889 ft 16 kts 150°
2026-04-29 09:15 31.79709 130.72141 887 ft 20 kts 150°
2026-04-29 09:16 31.79598 130.72217 888 ft 17 kts 150°
2026-04-29 09:16 31.79502 130.72282 889 ft 14 kts 149°
2026-04-29 09:16 31.79421 130.72337 888 ft 13 kts 150°
2026-04-29 09:16 31.79357 130.72380 887 ft 8 kts 150°
2026-04-29 09:17 31.79325 130.72396 887 ft 3 kts 197°
2026-04-29 09:17 31.79309 130.72378 887 ft 2 kts 230°
2026-04-29 09:17 31.79295 130.72358 887 ft 4 kts 230°
2026-04-29 09:17 31.79277 130.72344 887 ft 3 kts 172°
2026-04-29 09:18 31.79256 130.72353 885 ft 3 kts 154°
2026-04-29 09:18 31.79244 130.72353 885 ft 0 kts 212°
2026-04-29 09:18 31.79241 130.72347 885 ft 2 kts 245°
2026-04-29 09:19 31.79240 130.72345 885 ft 0 kts 244°